Time;durP1;ratioP1;P1;durP2;ratioP2;P2;SDS_P1;SDS_P2;PMS_P1;PMS_P2;Temp;Humidity;BMP_temperature;BMP_pressure;BME280_temperature;BME280_humidity;BME280_pressure;Samples;Min_cycle;Max_cycle;Signal;HPM_P1;HPM_P2
2023/09/12 00:01:44;;;;;;;;;;;;;;;;;;5079464;28;19913;-57
2023/09/12 00:04:11;;;;;;;;;;;;;;;;;;5082245;28;19919;-57
2023/09/12 00:06:36;;;;;;;;;;;;;;;;;;5095599;28;19935;-54
2023/09/12 00:09:02;;;;;;;;;;;;;;;;;;5095345;28;19912;-54
2023/09/12 00:11:27;;;;;;;;;;;;;;;;;;5064838;28;19959;-56
2023/09/12 00:13:53;;;;;;;;;;;;;;;;;;5075450;28;19920;-55
2023/09/12 00:16:18;;;;;;;;;;;;;;;;;;5075055;28;19924;-52
2023/09/12 00:18:44;;;;;;;;;;;;;;;;;;5075063;28;19940;-54
2023/09/12 00:21:09;;;;;;;;;;;;;;;;;;5067376;28;19912;-55
2023/09/12 00:23:35;;;;;;;;;;;;;;;;;;5095048;28;19920;-54
2023/09/12 00:26:00;;;;;;;;;;;;;;;;;;5095303;28;19920;-55
2023/09/12 00:28:26;;;;;;;;;;;;;;;;;;5095388;28;19979;-54
2023/09/12 00:30:51;;;;;;;;;;;;;;;;;;5088996;28;19923;-56
2023/09/12 00:33:17;;;;;;;;;;;;;;;;;;5075027;28;19912;-56
2023/09/12 00:35:42;;;;;;;;;;;;;;;;;;5057583;28;19989;-57
2023/09/12 00:38:08;;;;;;;;;;;;;;;;;;5075093;28;19916;-54
2023/09/12 00:40:33;;;;;;;;;;;;;;;;;;5077721;28;19927;-53
2023/09/12 00:42:59;;;;;;;;;;;;;;;;;;5095059;28;19913;-53
2023/09/12 00:45:24;;;;;;;;;;;;;;;;;;5077284;28;19916;-55
2023/09/12 00:47:50;;;;;;;;;;;;;;;;;;5077474;28;19962;-52
2023/09/12 00:50:15;;;;;;;;;;;;;;;;;;5077305;28;19935;-55
2023/09/12 00:52:41;;;;;;;;;;;;;;;;;;5074863;28;19912;-56
2023/09/12 00:55:06;;;;;;;;;;;;;;;;;;5076240;28;19897;-57
2023/09/12 00:57:32;;;;;;;;;;;;;;;;;;5078810;28;19924;-54
2023/09/12 00:59:57;;;;;;;;;;;;;;;;;;5061387;28;19916;-54
2023/09/12 01:02:23;;;;;;;;;;;;;;;;;;5077154;28;19919;-57
2023/09/12 01:04:48;;;;;;;;;;;;;;;;;;5080907;28;19942;-55
2023/09/12 01:07:13;;;;;;;;;;;;;;;;;;5098387;28;19943;-56
2023/09/12 01:09:40;;;;;;;;;;;;;;;;;;5081118;28;19912;-55
2023/09/12 01:12:05;;;;;;;;;;;;;;;;;;5067998;28;19920;-54
2023/09/12 01:14:30;;;;;;;;;;;;;;;;;;5078456;28;19980;-53
2023/09/12 01:16:56;;;;;;;;;;;;;;;;;;5066599;28;19916;-50
2023/09/12 01:19:22;;;;;;;;;;;;;;;;;;5097564;28;19970;-53
2023/09/12 01:21:47;;;;;;;;;;;;;;;;;;5108234;28;19923;-51
2023/09/12 01:24:13;;;;;;;;;;;;;;;;;;5117579;28;19912;-56
2023/09/12 01:26:38;;;;;;;;;;;;;;;;;;5117900;28;19948;-54
2023/09/12 01:29:04;;;;;;;;;;;;;;;;;;5118464;28;19920;-50
2023/09/12 01:31:29;;;;;;;;;;;;;;;;;;5111667;28;19927;-49
2023/09/12 01:33:55;;;;;;;;;;;;;;;;;;5097698;28;19920;-52
2023/09/12 01:36:20;;;;;;;;;;;;;;;;;;5097271;28;19916;-52
2023/09/12 01:38:46;;;;;;;;;;;;;;;;;;5098126;28;19968;-53
2023/09/12 01:41:11;;;;;;;;;;;;;;;;;;5100123;28;19941;-56
2023/09/12 01:43:37;;;;;;;;;;;;;;;;;;5117540;28;19987;-52
2023/09/12 01:46:02;;;;;;;;;;;;;;;;;;5117057;28;19919;-53
2023/09/12 01:48:28;;;;;;;;;;;;;;;;;;5117468;28;19916;-53
2023/09/12 01:50:54;;;;;;;;;;;;;;;;;;5118192;28;19916;-51
2023/09/12 01:53:19;;;;;;;;;;;;;;;;;;5097728;28;19927;-51
2023/09/12 01:55:45;;;;;;;;;;;;;;;;;;5096824;28;19952;-52
2023/09/12 01:58:11;;;;;;;;;;;;;;;;;;5096850;28;19912;-54
2023/09/12 02:00:37;;;;;;;;;;;;;;;;;;5096943;28;19912;-53
2023/09/12 02:03:02;;;;;;;;;;;;;;;;;;5113541;28;19912;-56
2023/09/12 02:05:27;;;;;;;;;;;;;;;;;;5117501;28;19988;-50
2023/09/12 02:07:52;;;;;;;;;;;;;;;;;;5117926;28;19915;-53
2023/09/12 02:10:18;;;;;;;;;;;;;;;;;;5117594;28;19916;-51
2023/09/12 02:12:43;;;;;;;;;;;;;;;;;;5103325;28;19980;-54
2023/09/12 02:15:09;;;;;;;;;;;;;;;;;;5096463;28;19980;-54
2023/09/12 02:17:35;;;;;;;;;;;;;;;;;;5096504;28;19938;-53
2023/09/12 02:20:00;;;;;;;;;;;;;;;;;;5097438;28;19912;-52
2023/09/12 02:22:26;;;;;;;;;;;;;;;;;;5106481;28;19920;-54
2023/09/12 02:24:51;;;;;;;;;;;;;;;;;;5116452;28;19912;-53
2023/09/12 02:27:17;;;;;;;;;;;;;;;;;;5117447;28;19912;-53
2023/09/12 02:29:42;;;;;;;;;;;;;;;;;;5116476;28;19912;-55
2023/09/12 02:32:08;;;;;;;;;;;;;;;;;;5109987;28;19928;-55
2023/09/12 02:34:34;;;;;;;;;;;;;;;;;;5096268;28;19921;-57
2023/09/12 02:36:59;;;;;;;;;;;;;;;;;;5113701;28;19920;-54
2023/09/12 02:39:25;;;;;;;;;;;;;;;;;;5116302;28;19934;-53
2023/09/12 02:41:50;;;;;;;;;;;;;;;;;;5112906;28;19984;-56
2023/09/12 02:44:16;;;;;;;;;;;;;;;;;;5095899;28;19912;-54
2023/09/12 02:46:42;;;;;;;;;;;;;;;;;;5096737;28;19939;-55
2023/09/12 02:49:07;;;;;;;;;;;;;;;;;;5095843;28;19908;-56
2023/09/12 02:51:32;;;;;;;;;;;;;;;;;;5095657;28;19928;-55
2023/09/12 02:53:58;;;;;;;;;;;;;;;;;;5116612;28;19944;-53
2023/09/12 02:56:23;;;;;;;;;;;;;;;;;;5115856;28;19934;-52
2023/09/12 02:58:49;;;;;;;;;;;;;;;;;;5116040;28;19979;-54
2023/09/12 03:01:15;;;;;;;;;;;;;;;;;;5115838;28;19973;-57
2023/09/12 03:03:40;;;;;;;;;;;;;;;;;;5115877;28;19919;-54
2023/09/12 03:06:06;;;;;;;;;;;;;;;;;;5098567;28;19982;-56
2023/09/12 03:08:31;;;;;;;;;;;;;;;;;;5092136;28;19917;-50
2023/09/12 03:10:57;;;;;;;;;;;;;;;;;;5091946;28;19917;-56
2023/09/12 03:13:22;;;;;;;;;;;;;;;;;;5116498;28;19948;-54
2023/09/12 03:15:48;;;;;;;;;;;;;;;;;;5084248;28;19923;-50
2023/09/12 03:18:14;;;;;;;;;;;;;;;;;;5079902;28;20388;-54
2023/09/12 03:20:39;;;;;;;;;;;;;;;;;;5058619;28;19912;-52
2023/09/12 03:23:05;;;;;;;;;;;;;;;;;;5085638;28;19951;-50
2023/09/12 03:25:30;;;;;;;;;;;;;;;;;;5094828;28;19923;-54
2023/09/12 03:27:56;;;;;;;;;;;;;;;;;;5058382;28;19948;-51
2023/09/12 03:30:21;;;;;;;;;;;;;;;;;;5075663;28;19993;-53
2023/09/12 03:32:47;;;;;;;;;;;;;;;;;;5082294;28;19912;-52
2023/09/12 03:35:12;;;;;;;;;;;;;;;;;;5078248;28;19995;-53
2023/09/12 03:37:42;;;;;;;;;;;;;;;;;;5078094;28;19938;-56
2023/09/12 03:40:08;;;;;;;;;;;;;;;;;;5095944;28;19930;-56
2023/09/12 03:42:33;;;;;;;;;;;;;;;;;;5074348;28;19912;-53
2023/09/12 03:44:59;;;;;;;;;;;;;;;;;;5057986;28;19920;-54
2023/09/12 03:47:24;;;;;;;;;;;;;;;;;;5089987;28;19919;-53
2023/09/12 03:49:50;;;;;;;;;;;;;;;;;;5078107;28;19913;-50
2023/09/12 03:52:15;;;;;;;;;;;;;;;;;;5077220;28;19917;-50
2023/09/12 03:54:41;;;;;;;;;;;;;;;;;;5058091;28;19977;-53
2023/09/12 03:57:07;;;;;;;;;;;;;;;;;;5057963;28;19913;-53
2023/09/12 03:59:32;;;;;;;;;;;;;;;;;;5075323;28;19980;-51
2023/09/12 04:01:57;;;;;;;;;;;;;;;;;;5057711;28;19967;-52
2023/09/12 04:04:23;;;;;;;;;;;;;;;;;;5074967;28;19912;-50
2023/09/12 04:06:48;;;;;;;;;;;;;;;;;;5077980;28;19912;-52
2023/09/12 04:09:14;;;;;;;;;;;;;;;;;;5077563;28;19919;-51
2023/09/12 04:11:39;;;;;;;;;;;;;;;;;;5095225;28;19988;-53
2023/09/12 04:14:05;;;;;;;;;;;;;;;;;;5063745;28;19912;-52
2023/09/12 04:16:30;;;;;;;;;;;;;;;;;;5074954;28;19971;-49
2023/09/12 04:18:56;;;;;;;;;;;;;;;;;;5075154;28;19921;-56
2023/09/12 04:21:21;;;;;;;;;;;;;;;;;;5075000;28;19935;-51
2023/09/12 04:23:47;;;;;;;;;;;;;;;;;;5068090;28;19951;-54
2023/09/12 04:26:12;;;;;;;;;;;;;;;;;;5077608;28;19920;-54
2023/09/12 04:28:38;;;;;;;;;;;;;;;;;;5077456;28;19916;-52
2023/09/12 04:31:04;;;;;;;;;;;;;;;;;;5060536;28;19945;-53
2023/09/12 04:33:29;;;;;;;;;;;;;;;;;;5068913;28;19935;-55
2023/09/12 04:35:54;;;;;;;;;;;;;;;;;;5081524;28;19912;-56
2023/09/12 04:38:22;;;;;;;;;;;;;;;;;;5081438;28;19928;-55
2023/09/12 04:40:48;;;;;;;;;;;;;;;;;;5064233;28;19909;-54
2023/09/12 04:43:13;;;;;;;;;;;;;;;;;;5065565;28;19912;-57
2023/09/12 04:45:39;;;;;;;;;;;;;;;;;;5074535;28;19956;-55
2023/09/12 04:48:04;;;;;;;;;;;;;;;;;;5076302;28;19913;-56
2023/09/12 04:50:30;;;;;;;;;;;;;;;;;;5078275;28;19909;-51
2023/09/12 04:52:55;;;;;;;;;;;;;;;;;;5079487;28;19913;-56
2023/09/12 04:55:20;;;;;;;;;;;;;;;;;;5066860;28;19916;-55
2023/09/12 04:57:46;;;;;;;;;;;;;;;;;;5078233;28;19917;-56
2023/09/12 05:00:11;;;;;;;;;;;;;;;;;;5093844;28;19912;-55
2023/09/12 05:02:37;;;;;;;;;;;;;;;;;;5078254;28;19912;-55
2023/09/12 05:05:03;;;;;;;;;;;;;;;;;;5061546;28;19913;-53
2023/09/12 05:07:29;;;;;;;;;;;;;;;;;;5075466;28;19951;-56
2023/09/12 05:09:55;;;;;;;;;;;;;;;;;;5060832;28;19917;-55
2023/09/12 05:12:20;;;;;;;;;;;;;;;;;;5060337;28;19978;-53
2023/09/12 05:14:46;;;;;;;;;;;;;;;;;;5092666;28;19951;-54
2023/09/12 05:17:11;;;;;;;;;;;;;;;;;;5066085;28;19917;-57
2023/09/12 05:19:37;;;;;;;;;;;;;;;;;;5080402;28;19948;-56
2023/09/12 05:22:02;;;;;;;;;;;;;;;;;;5098034;28;19912;-54
2023/09/12 05:24:27;;;;;;;;;;;;;;;;;;5108444;28;19922;-52
2023/09/12 05:26:53;;;;;;;;;;;;;;;;;;5117743;28;20010;-53
2023/09/12 05:29:19;;;;;;;;;;;;;;;;;;5117370;28;19916;-54
2023/09/12 05:31:44;;;;;;;;;;;;;;;;;;5117038;28;19920;-56
2023/09/12 05:34:10;;;;;;;;;;;;;;;;;;5109362;28;19912;-53
2023/09/12 05:36:35;;;;;;;;;;;;;;;;;;5097382;28;19912;-55
2023/09/12 05:39:00;;;;;;;;;;;;;;;;;;5097138;28;19908;-55
2023/09/12 05:41:26;;;;;;;;;;;;;;;;;;5096395;28;19923;-53
2023/09/12 05:43:51;;;;;;;;;;;;;;;;;;5101398;28;19951;-53
2023/09/12 05:46:16;;;;;;;;;;;;;;;;;;5117750;28;19951;-56
2023/09/12 05:48:42;;;;;;;;;;;;;;;;;;5117087;28;19912;-55
2023/09/12 05:51:08;;;;;;;;;;;;;;;;;;5117003;28;19920;-53
2023/09/12 05:53:33;;;;;;;;;;;;;;;;;;5114998;28;19916;-50
2023/09/12 05:55:58;;;;;;;;;;;;;;;;;;5096795;28;19950;-55
2023/09/12 05:58:23;;;;;;;;;;;;;;;;;;5096637;28;19912;-51
2023/09/12 06:00:49;;;;;;;;;;;;;;;;;;5096413;28;19919;-52
2023/09/12 06:03:14;;;;;;;;;;;;;;;;;;5096662;28;19913;-53
2023/09/12 06:05:40;;;;;;;;;;;;;;;;;;5115055;28;19962;-54
2023/09/12 06:08:05;;;;;;;;;;;;;;;;;;5116282;28;19935;-55
2023/09/12 06:10:31;;;;;;;;;;;;;;;;;;5117598;28;19912;-51
2023/09/12 06:12:56;;;;;;;;;;;;;;;;;;5117552;28;19920;-50
2023/09/12 06:15:22;;;;;;;;;;;;;;;;;;5102360;28;19920;-53
2023/09/12 06:17:47;;;;;;;;;;;;;;;;;;5085469;28;20016;-51
2023/09/12 06:20:13;;;;;;;;;;;;;;;;;;5077014;28;19968;-54
2023/09/12 06:22:39;;;;;;;;;;;;;;;;;;5077164;28;19916;-53
2023/09/12 06:25:04;;;;;;;;;;;;;;;;;;5088178;28;19929;-51
2023/09/12 06:27:31;;;;;;;;;;;;;;;;;;5096937;28;19913;-48
2023/09/12 06:29:56;;;;;;;;;;;;;;;;;;5096232;28;19913;-50
2023/09/12 06:32:22;;;;;;;;;;;;;;;;;;5096021;28;19962;-50
2023/09/12 06:34:48;;;;;;;;;;;;;;;;;;5087967;28;19912;-52
2023/09/12 06:37:13;;;;;;;;;;;;;;;;;;5076105;28;19936;-54
2023/09/12 06:39:38;;;;;;;;;;;;;;;;;;5076011;28;19913;-54
2023/09/12 06:42:04;;;;;;;;;;;;;;;;;;5075907;28;19987;-56
2023/09/12 06:44:29;;;;;;;;;;;;;;;;;;5076360;28;19912;-54
2023/09/12 06:46:55;;;;;;;;;;;;;;;;;;5076397;28;19913;-56
2023/09/12 06:49:20;;;;;;;;;;;;;;;;;;5076064;28;19980;-51
2023/09/12 06:51:46;;;;;;;;;;;;;;;;;;5075816;28;19920;-57
2023/09/12 06:54:12;;;;;;;;;;;;;;;;;;5077543;28;19919;-54
2023/09/12 06:56:38;;;;;;;;;;;;;;;;;;5095983;28;19943;-53
2023/09/12 06:59:04;;;;;;;;;;;;;;;;;;5095718;28;19913;-56
2023/09/12 07:01:29;;;;;;;;;;;;;;;;;;5095805;28;19920;-53
2023/09/12 07:03:56;;;;;;;;;;;;;;;;;;5095824;28;19912;-53
2023/09/12 07:06:21;;;;;;;;;;;;;;;;;;5075784;28;19917;-54
2023/09/12 07:08:47;;;;;;;;;;;;;;;;;;5075575;28;19919;-53
2023/09/12 07:11:12;;;;;;;;;;;;;;;;;;5075371;28;19939;-50
2023/09/12 07:13:38;;;;;;;;;;;;;;;;;;5075789;28;19943;-55
2023/09/12 07:16:04;;;;;;;;;;;;;;;;;;5075551;28;19972;-53
2023/09/12 07:18:30;;;;;;;;;;;;;;;;;;5063297;28;19917;-56
2023/09/12 07:20:55;;;;;;;;;;;;;;;;;;5072496;28;19959;-56
2023/09/12 07:23:21;;;;;;;;;;;;;;;;;;5075663;28;19924;-52
2023/09/12 07:25:47;;;;;;;;;;;;;;;;;;5090636;28;19940;-50
2023/09/12 07:28:14;;;;;;;;;;;;;;;;;;5095701;28;19935;-53
2023/09/12 07:30:39;;;;;;;;;;;;;;;;;;5095822;28;20341;-53
2023/09/12 07:33:04;;;;;;;;;;;;;;;;;;5095809;28;19980;-51
2023/09/12 07:35:30;;;;;;;;;;;;;;;;;;5084158;28;19913;-52
2023/09/12 07:37:56;;;;;;;;;;;;;;;;;;5075783;28;19912;-52
2023/09/12 07:40:21;;;;;;;;;;;;;;;;;;5086191;28;19979;-53
2023/09/12 07:42:47;;;;;;;;;;;;;;;;;;5095646;28;19916;-56
2023/09/12 07:45:13;;;;;;;;;;;;;;;;;;5087333;28;19913;-56
2023/09/12 07:47:39;;;;;;;;;;;;;;;;;;5075743;28;19924;-56
2023/09/12 07:50:06;;;;;;;;;;;;;;;;;;5075612;28;19913;-55
2023/09/12 07:52:31;;;;;;;;;;;;;;;;;;5075339;28;19916;-54
2023/09/12 07:54:57;;;;;;;;;;;;;;;;;;5075421;28;19935;-53
2023/09/12 07:57:23;;;;;;;;;;;;;;;;;;5075132;28;19920;-51
2023/09/12 07:59:48;;;;;;;;;;;;;;;;;;5075015;28;19917;-53
2023/09/12 08:02:14;;;;;;;;;;;;;;;;;;5074844;28;19912;-54
2023/09/12 08:04:39;;;;;;;;;;;;;;;;;;5076666;28;19913;-55
2023/09/12 08:07:05;;;;;;;;;;;;;;;;;;5095300;28;19920;-57
2023/09/12 08:09:30;;;;;;;;;;;;;;;;;;5095164;28;19944;-56
2023/09/12 08:11:56;;;;;;;;;;;;;;;;;;5095169;28;19974;-57
2023/09/12 08:14:21;;;;;;;;;;;;;;;;;;5094902;28;19912;-55
2023/09/12 08:16:47;;;;;;;;;;;;;;;;;;5076387;28;19913;-56
2023/09/12 08:19:12;;;;;;;;;;;;;;;;;;5074901;28;19932;-54
2023/09/12 08:21:38;;;;;;;;;;;;;;;;;;5074995;28;19917;-55
2023/09/12 08:24:03;;;;;;;;;;;;;;;;;;5074919;28;19920;-56
2023/09/12 08:26:29;;;;;;;;;;;;;;;;;;5074983;28;19932;-52
2023/09/12 08:28:54;;;;;;;;;;;;;;;;;;5075037;28;19944;-52
2023/09/12 08:31:20;;;;;;;;;;;;;;;;;;5074721;28;19920;-52
2023/09/12 08:33:45;;;;;;;;;;;;;;;;;;5074916;28;19934;-54
2023/09/12 08:36:11;;;;;;;;;;;;;;;;;;5086809;28;19913;-53
2023/09/12 08:38:36;;;;;;;;;;;;;;;;;;5095335;28;19916;-54
2023/09/12 08:41:02;;;;;;;;;;;;;;;;;;5094776;28;19913;-56
2023/09/12 08:43:27;;;;;;;;;;;;;;;;;;5095170;28;19928;-53
2023/09/12 08:45:53;;;;;;;;;;;;;;;;;;5069312;28;19981;-57
2023/09/12 08:48:18;;;;;;;;;;;;;;;;;;5075085;28;19917;-53
2023/09/12 08:50:44;;;;;;;;;;;;;;;;;;5074846;28;19975;-56
2023/09/12 08:53:09;;;;;;;;;;;;;;;;;;5074589;28;19913;-56
2023/09/12 08:55:35;;;;;;;;;;;;;;;;;;5079810;28;19916;-53
2023/09/12 08:58:01;;;;;;;;;;;;;;;;;;5094525;28;19912;-57
2023/09/12 09:00:27;;;;;;;;;;;;;;;;;;5082264;28;19912;-52
2023/09/12 09:02:52;;;;;;;;;;;;;;;;;;5074485;28;19913;-56
2023/09/12 09:05:18;;;;;;;;;;;;;;;;;;5076115;28;19917;-58
2023/09/12 09:07:44;;;;;;;;;;;;;;;;;;5094416;28;19972;-53
2023/09/12 09:10:09;;;;;;;;;;;;;;;;;;5094466;28;19923;-55
2023/09/12 09:12:34;;;;;;;;;;;;;;;;;;5076405;28;19917;-53
2023/09/12 09:15:00;;;;;;;;;;;;;;;;;;5070502;28;19924;-52
2023/09/12 09:17:25;;;;;;;;;;;;;;;;;;5057432;28;19931;-56
2023/09/12 09:19:51;;;;;;;;;;;;;;;;;;5063818;28;19976;-54
2023/09/12 09:22:16;;;;;;;;;;;;;;;;;;5077961;28;19920;-52
2023/09/12 09:24:42;;;;;;;;;;;;;;;;;;5077878;28;19919;-55
2023/09/12 09:27:07;;;;;;;;;;;;;;;;;;5093368;28;19952;-57
2023/09/12 09:29:33;;;;;;;;;;;;;;;;;;5095479;28;19913;-52
2023/09/12 09:31:58;;;;;;;;;;;;;;;;;;5077761;28;19924;-54
2023/09/12 09:34:24;;;;;;;;;;;;;;;;;;5077730;28;19924;-52
2023/09/12 09:36:49;;;;;;;;;;;;;;;;;;5089612;28;19934;-55
2023/09/12 09:39:15;;;;;;;;;;;;;;;;;;5097263;28;19913;-55
2023/09/12 09:41:41;;;;;;;;;;;;;;;;;;5097495;28;19912;-53
2023/09/12 09:44:06;;;;;;;;;;;;;;;;;;5097778;28;19948;-53
2023/09/12 09:46:32;;;;;;;;;;;;;;;;;;5088818;28;19920;-56
2023/09/12 09:48:59;;;;;;;;;;;;;;;;;;5077497;28;19951;-54
2023/09/12 09:51:25;;;;;;;;;;;;;;;;;;5077413;28;19919;-53
2023/09/12 09:53:50;;;;;;;;;;;;;;;;;;5077519;28;19936;-55
2023/09/12 09:56:16;;;;;;;;;;;;;;;;;;5083046;28;19912;-58
2023/09/12 09:58:41;;;;;;;;;;;;;;;;;;5097526;28;19919;-57
2023/09/12 10:01:07;;;;;;;;;;;;;;;;;;5097625;28;19912;-56
2023/09/12 10:03:32;;;;;;;;;;;;;;;;;;5097418;28;19966;-52
2023/09/12 10:05:58;;;;;;;;;;;;;;;;;;5077266;28;19912;-54
2023/09/12 10:08:23;;;;;;;;;;;;;;;;;;5077150;28;19936;-57
2023/09/12 10:10:49;;;;;;;;;;;;;;;;;;5076726;28;19960;-55
2023/09/12 10:13:14;;;;;;;;;;;;;;;;;;5076992;28;19936;-55
2023/09/12 10:15:40;;;;;;;;;;;;;;;;;;5076972;28;19913;-56
2023/09/12 10:18:05;;;;;;;;;;;;;;;;;;5096083;28;19955;-54
2023/09/12 10:20:31;;;;;;;;;;;;;;;;;;5097119;28;19912;-56
2023/09/12 10:22:56;;;;;;;;;;;;;;;;;;5096952;28;19954;-56
2023/09/12 10:25:22;;;;;;;;;;;;;;;;;;5096650;28;19912;-57
2023/09/12 10:27:47;;;;;;;;;;;;;;;;;;5080562;28;19917;-57
2023/09/12 10:30:13;;;;;;;;;;;;;;;;;;5076550;28;19912;-54
2023/09/12 10:32:38;;;;;;;;;;;;;;;;;;5076758;28;19920;-54
2023/09/12 10:35:04;;;;;;;;;;;;;;;;;;5076580;28;19975;-55
2023/09/12 10:37:29;;;;;;;;;;;;;;;;;;5088383;28;19916;-58
2023/09/12 10:39:55;;;;;;;;;;;;;;;;;;5085483;28;19912;-57
2023/09/12 10:42:21;;;;;;;;;;;;;;;;;;5076578;28;19917;-56
2023/09/12 10:44:46;;;;;;;;;;;;;;;;;;5076373;28;19913;-57
2023/09/12 10:47:11;;;;;;;;;;;;;;;;;;5085288;28;19920;-55
2023/09/12 10:49:37;;;;;;;;;;;;;;;;;;5096130;28;19919;-56
2023/09/12 10:52:02;;;;;;;;;;;;;;;;;;5095874;28;19954;-58
2023/09/12 10:54:28;;;;;;;;;;;;;;;;;;5096244;28;19916;-56
2023/09/12 10:56:53;;;;;;;;;;;;;;;;;;5090582;28;19951;-55
2023/09/12 10:59:21;;;;;;;;;;;;;;;;;;5080594;28;19951;-57
2023/09/12 11:01:46;;;;;;;;;;;;;;;;;;5096120;28;19948;-54
2023/09/12 11:04:12;;;;;;;;;;;;;;;;;;5096114;28;19912;-57
2023/09/12 11:06:38;;;;;;;;;;;;;;;;;;5093426;28;19956;-56
2023/09/12 11:09:03;;;;;;;;;;;;;;;;;;5075614;28;19912;-58
2023/09/12 11:11:29;;;;;;;;;;;;;;;;;;5075895;28;19950;-57
2023/09/12 11:13:54;;;;;;;;;;;;;;;;;;5076005;28;19919;-57
2023/09/12 11:16:20;;;;;;;;;;;;;;;;;;5075668;28;19919;-56
2023/09/12 11:18:46;;;;;;;;;;;;;;;;;;5094891;28;20015;-57
2023/09/12 11:21:11;;;;;;;;;;;;;;;;;;5079298;28;19928;-56
2023/09/12 11:23:39;;;;;;;;;;;;;;;;;;5055867;28;19963;-59
2023/09/12 11:26:05;;;;;;;;;;;;;;;;;;5055696;28;19936;-57
2023/09/12 11:28:33;;;;;;;;;;;;;;;;;;5088192;28;21553;-58
2023/09/12 11:30:59;;;;;;;;;;;;;;;;;;5079382;28;19984;-57
2023/09/12 11:33:25;;;;;;;;;;;;;;;;;;5074979;28;19970;-55
2023/09/12 11:35:50;;;;;;;;;;;;;;;;;;5058113;28;19919;-56
2023/09/12 11:38:16;;;;;;;;;;;;;;;;;;5088393;28;19912;-55
2023/09/12 11:40:41;;;;;;;;;;;;;;;;;;5082718;28;19919;-57
2023/09/12 11:43:07;;;;;;;;;;;;;;;;;;5075232;28;19964;-56
2023/09/12 11:45:32;;;;;;;;;;;;;;;;;;5075286;28;19913;-58
2023/09/12 11:47:58;;;;;;;;;;;;;;;;;;5085653;28;19970;-57
2023/09/12 11:50:23;;;;;;;;;;;;;;;;;;5095170;28;19939;-59
2023/09/12 11:52:49;;;;;;;;;;;;;;;;;;5095242;28;19927;-57
2023/09/12 11:55:14;;;;;;;;;;;;;;;;;;5095309;28;19952;-59
2023/09/12 11:57:40;;;;;;;;;;;;;;;;;;5088315;28;19913;-59
2023/09/12 12:00:08;;;;;;;;;;;;;;;;;;5075240;28;19968;-59
2023/09/12 12:02:37;;;;;;;;;;;;;;;;;;5075429;28;19948;-60
2023/09/12 12:05:04;;;;;;;;;;;;;;;;;;5074812;28;19909;-57
2023/09/12 12:07:29;;;;;;;;;;;;;;;;;;5079664;28;19912;-57
2023/09/12 12:09:55;;;;;;;;;;;;;;;;;;5091243;28;19920;-58
2023/09/12 12:12:20;;;;;;;;;;;;;;;;;;5074763;28;19931;-56
2023/09/12 12:14:46;;;;;;;;;;;;;;;;;;5074920;28;19913;-57
2023/09/12 12:17:11;;;;;;;;;;;;;;;;;;5076156;28;19921;-58
2023/09/12 12:19:37;;;;;;;;;;;;;;;;;;5094563;28;19913;-58
2023/09/12 12:22:02;;;;;;;;;;;;;;;;;;5074855;28;19913;-58
2023/09/12 12:24:27;;;;;;;;;;;;;;;;;;5074777;28;19924;-59
2023/09/12 12:26:53;;;;;;;;;;;;;;;;;;5075005;28;19913;-56
2023/09/12 12:29:18;;;;;;;;;;;;;;;;;;5093154;28;19924;-57
2023/09/12 12:31:44;;;;;;;;;;;;;;;;;;5094825;28;19922;-60
2023/09/12 12:34:09;;;;;;;;;;;;;;;;;;5094959;28;19917;-59
2023/09/12 12:36:35;;;;;;;;;;;;;;;;;;5094938;28;19913;-58
2023/09/12 12:39:00;;;;;;;;;;;;;;;;;;5079800;28;19913;-59
2023/09/12 12:41:26;;;;;;;;;;;;;;;;;;5074859;28;19919;-59
2023/09/12 12:43:51;;;;;;;;;;;;;;;;;;5074747;28;19967;-57
2023/09/12 12:46:19;;;;;;;;;;;;;;;;;;5074747;28;19912;-57
2023/09/12 12:48:45;;;;;;;;;;;;;;;;;;5086688;28;19924;-59
2023/09/12 12:51:10;;;;;;;;;;;;;;;;;;5095795;28;19917;-57
2023/09/12 12:53:35;;;;;;;;;;;;;;;;;;5098736;28;19935;-58
2023/09/12 12:56:01;;;;;;;;;;;;;;;;;;5098563;28;19912;-59
2023/09/12 12:58:27;;;;;;;;;;;;;;;;;;5090001;28;19928;-57
2023/09/12 13:00:53;;;;;;;;;;;;;;;;;;5086271;28;19983;-57
2023/09/12 13:03:18;;;;;;;;;;;;;;;;;;5098383;28;19955;-58
2023/09/12 13:05:44;;;;;;;;;;;;;;;;;;5098502;28;19912;-58
2023/09/12 13:08:10;;;;;;;;;;;;;;;;;;5092826;28;19916;-58
2023/09/12 13:10:36;;;;;;;;;;;;;;;;;;5077774;28;19913;-57
2023/09/12 13:13:02;;;;;;;;;;;;;;;;;;5060677;28;19951;-57
2023/09/12 13:15:28;;;;;;;;;;;;;;;;;;5077991;28;19913;-58
2023/09/12 13:17:53;;;;;;;;;;;;;;;;;;5077939;28;19917;-55
2023/09/12 13:20:19;;;;;;;;;;;;;;;;;;5060762;28;19917;-54
2023/09/12 13:22:45;;;;;;;;;;;;;;;;;;5078211;28;19913;-57
2023/09/12 13:25:11;;;;;;;;;;;;;;;;;;5078123;28;19913;-59
2023/09/12 13:27:36;;;;;;;;;;;;;;;;;;5078231;28;19977;-59
2023/09/12 13:30:03;;;;;;;;;;;;;;;;;;5097381;28;19916;-57
2023/09/12 13:32:29;;;;;;;;;;;;;;;;;;5097317;28;20128;-54
2023/09/12 13:34:54;;;;;;;;;;;;;;;;;;5097775;28;19913;-56
2023/09/12 13:37:21;;;;;;;;;;;;;;;;;;5097263;28;19934;-57
2023/09/12 13:39:48;;;;;;;;;;;;;;;;;;5081136;28;19912;-57
2023/09/12 13:42:14;;;;;;;;;;;;;;;;;;5077336;28;19955;-56
2023/09/12 13:44:40;;;;;;;;;;;;;;;;;;5077630;28;19916;-60
2023/09/12 13:47:05;;;;;;;;;;;;;;;;;;5077676;28;19913;-57
2023/09/12 13:49:31;;;;;;;;;;;;;;;;;;5077530;28;19913;-55
2023/09/12 13:51:56;;;;;;;;;;;;;;;;;;5089351;28;19932;-56
2023/09/12 13:54:22;;;;;;;;;;;;;;;;;;5097438;28;19912;-59
2023/09/12 13:56:47;;;;;;;;;;;;;;;;;;5097517;28;19912;-58
2023/09/12 13:59:13;;;;;;;;;;;;;;;;;;5086974;28;19920;-57
2023/09/12 14:01:38;;;;;;;;;;;;;;;;;;5084973;28;19974;-57
2023/09/12 14:04:04;;;;;;;;;;;;;;;;;;5096889;28;19913;-59
2023/09/12 14:06:29;;;;;;;;;;;;;;;;;;5097300;28;19956;-58
2023/09/12 14:08:55;;;;;;;;;;;;;;;;;;5090620;28;19913;-57
2023/09/12 14:11:20;;;;;;;;;;;;;;;;;;5076909;28;19927;-58
2023/09/12 14:13:46;;;;;;;;;;;;;;;;;;5077190;28;19913;-58
2023/09/12 14:16:11;;;;;;;;;;;;;;;;;;5077311;28;19913;-58
2023/09/12 14:18:37;;;;;;;;;;;;;;;;;;5077150;28;19983;-56
2023/09/12 14:21:02;;;;;;;;;;;;;;;;;;5076910;28;19912;-58
2023/09/12 14:23:28;;;;;;;;;;;;;;;;;;5059611;28;19935;-58
2023/09/12 14:25:53;;;;;;;;;;;;;;;;;;5076849;28;19920;-58
2023/09/12 14:28:19;;;;;;;;;;;;;;;;;;5076721;28;19917;-58
2023/09/12 14:30:45;;;;;;;;;;;;;;;;;;5096080;28;19975;-57
2023/09/12 14:33:11;;;;;;;;;;;;;;;;;;5096728;28;19913;-58
2023/09/12 14:35:37;;;;;;;;;;;;;;;;;;5096967;28;19919;-58
2023/09/12 14:38:04;;;;;;;;;;;;;;;;;;5096608;28;19913;-58
2023/09/12 14:40:29;;;;;;;;;;;;;;;;;;5080840;28;19917;-59
2023/09/12 14:42:55;;;;;;;;;;;;;;;;;;5090127;28;19913;-56
2023/09/12 14:45:21;;;;;;;;;;;;;;;;;;5096358;28;19959;-59
2023/09/12 14:47:47;;;;;;;;;;;;;;;;;;5096721;28;19938;-59
2023/09/12 14:50:12;;;;;;;;;;;;;;;;;;5083473;28;19944;-60
2023/09/12 14:52:38;;;;;;;;;;;;;;;;;;5068996;28;19942;-59
2023/09/12 14:55:03;;;;;;;;;;;;;;;;;;5096361;28;19919;-58
2023/09/12 14:57:29;;;;;;;;;;;;;;;;;;5096177;28;19940;-59
2023/09/12 14:59:55;;;;;;;;;;;;;;;;;;5087406;28;19913;-60
2023/09/12 15:02:20;;;;;;;;;;;;;;;;;;5076118;28;19916;-60
2023/09/12 15:04:46;;;;;;;;;;;;;;;;;;5076217;28;19919;-59
2023/09/12 15:07:11;;;;;;;;;;;;;;;;;;5076178;28;19948;-59
2023/09/12 15:09:37;;;;;;;;;;;;;;;;;;5081379;28;19913;-58
2023/09/12 15:12:02;;;;;;;;;;;;;;;;;;5095882;28;19938;-59
2023/09/12 15:14:28;;;;;;;;;;;;;;;;;;5095394;28;19920;-56
2023/09/12 15:16:54;;;;;;;;;;;;;;;;;;5095951;28;19976;-59
2023/09/12 15:19:19;;;;;;;;;;;;;;;;;;5094387;28;19916;-58
2023/09/12 15:21:44;;;;;;;;;;;;;;;;;;5076277;28;19920;-59
2023/09/12 15:24:10;;;;;;;;;;;;;;;;;;5075962;28;19944;-59
2023/09/12 15:26:36;;;;;;;;;;;;;;;;;;5075981;28;19913;-55
2023/09/12 15:29:01;;;;;;;;;;;;;;;;;;5075836;28;19944;-58
2023/09/12 15:31:26;;;;;;;;;;;;;;;;;;5093358;28;19938;-58
2023/09/12 15:33:51;;;;;;;;;;;;;;;;;;5095672;28;19912;-56
2023/09/12 15:36:17;;;;;;;;;;;;;;;;;;5095852;28;19952;-56
2023/09/12 15:38:42;;;;;;;;;;;;;;;;;;5095849;28;19913;-59
2023/09/12 15:41:08;;;;;;;;;;;;;;;;;;5081448;28;19917;-59
2023/09/12 15:43:34;;;;;;;;;;;;;;;;;;5075482;28;19920;-58
2023/09/12 15:45:59;;;;;;;;;;;;;;;;;;5075648;28;19940;-59
2023/09/12 15:48:24;;;;;;;;;;;;;;;;;;5075569;28;19912;-57
2023/09/12 15:50:50;;;;;;;;;;;;;;;;;;5086511;28;19912;-58
2023/09/12 15:53:15;;;;;;;;;;;;;;;;;;5095319;28;19984;-59
2023/09/12 15:55:41;;;;;;;;;;;;;;;;;;5095715;28;19939;-58
2023/09/12 15:58:06;;;;;;;;;;;;;;;;;;5095484;28;19933;-57
2023/09/12 16:00:32;;;;;;;;;;;;;;;;;;5095604;28;19912;-56
2023/09/12 16:02:57;;;;;;;;;;;;;;;;;;5095186;28;19913;-56
2023/09/12 16:05:22;;;;;;;;;;;;;;;;;;5095389;28;19971;-59
2023/09/12 16:07:48;;;;;;;;;;;;;;;;;;5095319;28;19916;-55
2023/09/12 16:10:14;;;;;;;;;;;;;;;;;;5091901;28;19913;-58
2023/09/12 16:12:40;;;;;;;;;;;;;;;;;;5057741;28;19920;-55
2023/09/12 16:15:05;;;;;;;;;;;;;;;;;;5075276;28;19912;-58
2023/09/12 16:17:31;;;;;;;;;;;;;;;;;;5074942;28;19928;-58
2023/09/12 16:19:56;;;;;;;;;;;;;;;;;;5057717;28;19913;-55
2023/09/12 16:22:22;;;;;;;;;;;;;;;;;;5095109;28;20017;-53
2023/09/12 16:24:48;;;;;;;;;;;;;;;;;;5096867;28;19912;-56
2023/09/12 16:27:13;;;;;;;;;;;;;;;;;;5101799;28;19912;-56
2023/09/12 16:29:39;;;;;;;;;;;;;;;;;;5101608;28;19924;-57
2023/09/12 16:32:04;;;;;;;;;;;;;;;;;;5101918;28;19923;-53
2023/09/12 16:34:30;;;;;;;;;;;;;;;;;;5101784;28;19912;-56